Time;durP1;ratioP1;P1;durP2;ratioP2;P2;SDS_P1;SDS_P2;PMS_P1;PMS_P2;Temp;Humidity;BMP_temperature;BMP_pressure;BME280_temperature;BME280_humidity;BME280_pressure;Samples;Min_cycle;Max_cycle;Signal;HPM_P1;HPM_P2
2023/11/13 00:01:43;;;;;;;;;;;;;;;12.64;60.34;99427.47;5054242;28;19967;-77
2023/11/13 00:04:08;;;;;;;;;;;;;;;12.60;60.12;99424.34;5054034;28;19972;-76
2023/11/13 00:06:34;;;;;;;;;;;;;;;12.57;60.06;99419.44;5053966;28;19917;-76
2023/11/13 00:08:59;;;;;;;;;;;;;;;12.61;60.22;99425.16;5054065;28;20422;-76
2023/11/13 00:11:24;;;;;;;;;;;;;;;12.57;60.72;99435.34;5053993;28;19921;-76
2023/11/13 00:13:50;;;;;;;;;;;;;;;12.57;60.95;99434.50;5053921;28;19962;-75
2023/11/13 00:16:15;;;;;;;;;;;;;;;12.56;60.72;99432.88;5053764;28;20499;-77
2023/11/13 00:18:41;;;;;;;;;;;;;;;12.56;60.69;99431.03;5053877;28;19919;-76
2023/11/13 00:21:06;;;;;;;;;;;;;;;12.57;61.13;99437.97;5053957;28;19919;-76
2023/11/13 00:23:32;;;;;;;;;;;;;;;12.57;60.79;99442.47;5053899;28;19948;-77
2023/11/13 00:25:57;;;;;;;;;;;;;;;12.55;61.78;99424.09;5053665;28;19912;-76
2023/11/13 00:28:23;;;;;;;;;;;;;;;12.54;59.82;99409.22;5053513;28;19995;-76
2023/11/13 00:30:48;;;;;;;;;;;;;;;12.54;60.39;99411.88;5053708;28;19913;-75
2023/11/13 00:33:15;;;;;;;;;;;;;;;12.51;61.37;99412.28;5053255;28;19913;-76
2023/11/13 00:35:43;;;;;;;;;;;;;;;12.43;61.03;99424.84;5053451;28;20074;-75
2023/11/13 00:38:08;;;;;;;;;;;;;;;12.38;60.81;99434.19;5053893;28;19920;-77
2023/11/13 00:40:34;;;;;;;;;;;;;;;12.40;61.51;99441.94;5053799;28;19956;-76
2023/11/13 00:43:00;;;;;;;;;;;;;;;12.43;61.75;99438.91;5053421;28;19974;-76
2023/11/13 00:45:25;;;;;;;;;;;;;;;12.45;61.93;99430.75;5053381;28;19908;-76
2023/11/13 00:47:51;;;;;;;;;;;;;;;12.45;63.19;99425.47;5053131;28;19913;-76
2023/11/13 00:50:16;;;;;;;;;;;;;;;12.40;62.42;99423.41;5053345;28;19919;-76
2023/11/13 00:52:41;;;;;;;;;;;;;;;12.39;61.64;99427.06;5052981;28;19952;-75
2023/11/13 00:55:09;;;;;;;;;;;;;;;12.35;62.48;99423.97;5052948;28;19921;-76
2023/11/13 00:57:34;;;;;;;;;;;;;;;12.31;62.92;99419.25;5052832;28;20410;-74
2023/11/13 00:59:59;;;;;;;;;;;;;;;12.31;61.96;99419.25;5052935;28;19952;-76
2023/11/13 01:02:25;;;;;;;;;;;;;;;12.30;62.62;99422.91;5052815;28;19932;-76
2023/11/13 01:04:50;;;;;;;;;;;;;;;12.27;63.89;99429.41;5053039;28;19913;-77
2023/11/13 01:07:18;;;;;;;;;;;;;;;12.26;61.49;99429.59;5034947;28;19913;-76
2023/11/13 01:09:45;;;;;;;;;;;;;;;12.18;62.95;99427.09;5052804;28;19916;-76
2023/11/13 01:12:11;;;;;;;;;;;;;;;12.17;61.85;99428.09;5052939;28;19913;-75
2023/11/13 01:14:36;;;;;;;;;;;;;;;12.17;62.20;99422.81;5053012;28;19912;-76
2023/11/13 01:17:02;;;;;;;;;;;;;;;12.18;62.41;99429.75;5051446;28;19939;-77
2023/11/13 01:19:30;;;;;;;;;;;;;;;12.18;62.98;99421.78;5052678;28;19967;-76
2023/11/13 01:21:56;;;;;;;;;;;;;;;12.17;63.20;99422.81;5051356;28;19992;-76
2023/11/13 01:24:21;;;;;;;;;;;;;;;12.18;62.60;99412.03;5051339;28;20006;-76
2023/11/13 01:26:46;;;;;;;;;;;;;;;12.18;63.42;99417.31;5051055;28;20043;-77
2023/11/13 01:29:12;;;;;;;;;;;;;;;12.18;61.24;99422.63;5052335;28;19913;-77
2023/11/13 01:31:37;;;;;;;;;;;;;;;12.16;62.59;99424.63;5052542;28;20095;-76
2023/11/13 01:34:02;;;;;;;;;;;;;;;12.13;62.95;99432.13;5051095;28;20325;-76
2023/11/13 01:36:27;;;;;;;;;;;;;;;12.14;63.90;99436.41;5052621;28;19917;-76
2023/11/13 01:38:53;;;;;;;;;;;;;;;12.15;63.63;99430.94;5051114;28;19913;-76
2023/11/13 01:41:18;;;;;;;;;;;;;;;12.17;63.31;99433.41;5052230;28;19919;-76
2023/11/13 01:43:43;;;;;;;;;;;;;;;12.17;62.32;99433.41;5051005;28;19913;-76
2023/11/13 01:46:09;;;;;;;;;;;;;;;12.19;63.39;99426.91;5051862;28;19923;-77
2023/11/13 01:48:35;;;;;;;;;;;;;;;12.20;62.17;99422.44;5034291;28;19920;-75
2023/11/13 01:51:00;;;;;;;;;;;;;;;12.19;62.89;99426.91;5052149;28;19913;-77
2023/11/13 01:53:26;;;;;;;;;;;;;;;12.20;62.78;99428.53;5052088;28;19913;-75
2023/11/13 01:55:53;;;;;;;;;;;;;;;12.24;62.60;99428.97;5051900;28;20313;-76
2023/11/13 01:58:18;;;;;;;;;;;;;;;12.27;63.12;99423.28;5051999;28;19913;-76
2023/11/13 02:00:44;;;;;;;;;;;;;;;12.23;62.33;99409.63;5051879;28;19920;-76
2023/11/13 02:03:10;;;;;;;;;;;;;;;12.24;62.91;99407.78;5051538;28;19920;-76
2023/11/13 02:05:36;;;;;;;;;;;;;;;12.25;62.13;99417.38;5050573;28;20394;-76
2023/11/13 02:08:01;;;;;;;;;;;;;;;12.24;62.12;99418.38;5051919;28;20006;-76
2023/11/13 02:10:27;;;;;;;;;;;;;;;12.24;62.43;99427.16;5051826;28;19955;-76
2023/11/13 02:12:53;;;;;;;;;;;;;;;12.25;62.67;99435.91;5051813;28;19916;-76
2023/11/13 02:15:19;;;;;;;;;;;;;;;12.24;63.05;99429.78;5051754;28;19917;-77
2023/11/13 02:17:57;;;;;;;;;;;;;;;12.21;61.52;99439.94;5051961;28;19919;-76
2023/11/13 02:20:23;;;;;;;;;;;;;;;12.14;62.98;99431.13;5051843;28;20366;-75
2023/11/13 02:22:48;;;;;;;;;;;;;;;12.08;63.47;99428.22;5051612;28;19963;-77
2023/11/13 02:25:15;;;;;;;;;;;;;;;12.01;64.44;99427.34;5050425;28;19943;-76
2023/11/13 02:27:42;;;;;;;;;;;;;;;12.02;64.40;99420.25;5051534;28;20307;-77
2023/11/13 02:30:09;;;;;;;;;;;;;;;12.01;63.45;99414.13;5051567;28;20363;-77
2023/11/13 02:32:34;;;;;;;;;;;;;;;12.00;63.25;99412.50;5033479;28;19999;-76
2023/11/13 02:34:59;;;;;;;;;;;;;;;12.04;64.38;99412.94;5051188;28;19948;-76
2023/11/13 02:37:24;;;;;;;;;;;;;;;11.97;64.65;99418.16;5051441;28;19917;-77
2023/11/13 02:39:50;;;;;;;;;;;;;;;11.96;64.90;99427.09;5033526;28;19913;-76
2023/11/13 02:42:15;;;;;;;;;;;;;;;11.93;65.23;99435.44;5051549;28;19913;-75
2023/11/13 02:44:40;;;;;;;;;;;;;;;11.92;64.70;99441.72;5051435;28;19913;-76
2023/11/13 02:47:06;;;;;;;;;;;;;;;11.91;64.63;99433.97;5049995;28;20079;-77
2023/11/13 02:49:31;;;;;;;;;;;;;;;11.89;65.09;99436.81;5051367;28;19913;-76
2023/11/13 02:51:56;;;;;;;;;;;;;;;11.88;65.37;99429.03;5051432;28;19913;-76
2023/11/13 02:54:22;;;;;;;;;;;;;;;11.89;65.03;99423.59;5051358;28;20456;-76
2023/11/13 02:56:47;;;;;;;;;;;;;;;11.88;64.13;99424.56;5052358;28;19917;-76
2023/11/13 02:59:12;;;;;;;;;;;;;;;11.82;65.75;99424.50;5055127;28;20336;-76
2023/11/13 03:01:38;;;;;;;;;;;;;;;11.73;66.17;99429.88;5055392;28;19919;-76
2023/11/13 03:04:03;;;;;;;;;;;;;;;11.70;66.15;99427.63;5055143;28;19927;-76
2023/11/13 03:06:29;;;;;;;;;;;;;;;11.73;65.91;99431.72;5055132;28;19956;-76
2023/11/13 03:08:54;;;;;;;;;;;;;;;11.71;65.37;99421.31;5055158;28;19913;-75
2023/11/13 03:11:19;;;;;;;;;;;;;;;11.70;66.59;99419.69;5055209;28;19924;-76
2023/11/13 03:13:45;;;;;;;;;;;;;;;11.72;65.11;99415.03;5055123;28;19943;-76
2023/11/13 03:16:11;;;;;;;;;;;;;;;11.69;65.33;99406.63;5053716;28;19917;-77
2023/11/13 03:18:36;;;;;;;;;;;;;;;11.74;65.55;99412.19;5054967;28;20352;-76
2023/11/13 03:21:02;;;;;;;;;;;;;;;11.81;65.21;99423.69;5054880;28;19913;-77
2023/11/13 03:23:28;;;;;;;;;;;;;;;11.86;65.55;99425.75;5053502;28;19967;-76
2023/11/13 03:25:53;;;;;;;;;;;;;;;11.89;65.44;99431.53;5054774;28;19917;-76
2023/11/13 03:28:18;;;;;;;;;;;;;;;11.89;65.12;99431.53;5054728;28;20325;-76
2023/11/13 03:30:44;;;;;;;;;;;;;;;11.94;65.86;99425.66;5054646;28;19913;-76
2023/11/13 03:33:09;;;;;;;;;;;;;;;11.93;66.86;99430.13;5053229;28;20325;-76
2023/11/13 03:35:35;;;;;;;;;;;;;;;11.93;65.75;99434.59;5054476;28;19917;-76
2023/11/13 03:38:00;;;;;;;;;;;;;;;11.93;65.08;99431.97;5054651;28;19913;-76
2023/11/13 03:40:25;;;;;;;;;;;;;;;11.96;67.28;99428.94;5054662;28;19913;-76
2023/11/13 03:42:50;;;;;;;;;;;;;;;11.95;65.21;99428.13;5054564;28;19912;-77
2023/11/13 03:45:16;;;;;;;;;;;;;;;11.98;65.41;99432.22;5054530;28;19920;-76
2023/11/13 03:47:41;;;;;;;;;;;;;;;11.99;65.16;99436.50;5054500;28;20360;-76
2023/11/13 03:50:07;;;;;;;;;;;;;;;12.00;65.13;99433.66;5053113;28;19967;-76
2023/11/13 03:52:32;;;;;;;;;;;;;;;11.99;65.73;99445.25;5054014;28;20003;-76
2023/11/13 03:54:58;;;;;;;;;;;;;;;11.97;65.79;99435.88;5053948;28;19913;-76
2023/11/13 03:57:23;;;;;;;;;;;;;;;11.96;65.35;99437.69;5054295;28;19995;-77
2023/11/13 03:59:48;;;;;;;;;;;;;;;11.98;65.98;99438.31;5054121;28;19912;-76
2023/11/13 04:02:14;;;;;;;;;;;;;;;11.99;65.31;99431.19;5054132;28;19916;-77
2023/11/13 04:04:39;;;;;;;;;;;;;;;12.00;66.50;99446.88;5054026;28;19921;-76
2023/11/13 04:07:06;;;;;;;;;;;;;;;11.99;66.52;99432.03;5053678;28;20273;-77
2023/11/13 04:09:32;;;;;;;;;;;;;;;11.99;66.25;99436.50;5051823;28;19919;-76
2023/11/13 04:11:58;;;;;;;;;;;;;;;11.99;65.68;99437.31;5053950;28;19912;-76
2023/11/13 04:14:23;;;;;;;;;;;;;;;11.99;66.84;99432.03;5054148;28;19920;-75
2023/11/13 04:16:49;;;;;;;;;;;;;;;12.02;65.96;99439.59;5053650;28;19940;-76
2023/11/13 04:19:14;;;;;;;;;;;;;;;12.02;66.12;99449.34;5053690;28;19913;-76
2023/11/13 04:21:39;;;;;;;;;;;;;;;12.02;66.62;99446.69;5052613;28;20400;-76
2023/11/13 04:24:05;;;;;;;;;;;;;;;12.00;65.99;99465.41;5052404;28;20317;-76
2023/11/13 04:26:31;;;;;;;;;;;;;;;11.99;65.39;99468.25;5053714;28;19982;-77
2023/11/13 04:28:56;;;;;;;;;;;;;;;11.98;65.98;99456.03;5053513;28;20011;-76
2023/11/13 04:31:22;;;;;;;;;;;;;;;11.99;66.57;99460.31;5053581;28;20348;-74
2023/11/13 04:33:50;;;;;;;;;;;;;;;11.99;66.47;99462.97;5053363;28;19923;-76
2023/11/13 04:36:15;;;;;;;;;;;;;;;11.98;65.61;99451.56;5053389;28;19966;-76
2023/11/13 04:38:41;;;;;;;;;;;;;;;12.00;65.32;99456.66;5053569;28;20356;-76
2023/11/13 04:41:07;;;;;;;;;;;;;;;11.97;66.64;99460.50;5053382;28;20004;-76
2023/11/13 04:43:33;;;;;;;;;;;;;;;11.99;66.77;99447.06;5053233;28;20011;-76
2023/11/13 04:45:58;;;;;;;;;;;;;;;11.96;66.74;99447.47;5053250;28;20405;-76
2023/11/13 04:48:24;;;;;;;;;;;;;;;11.93;67.18;99443.38;5053195;28;19913;-76
2023/11/13 04:50:49;;;;;;;;;;;;;;;11.94;65.60;99442.34;5053190;28;19924;-76
2023/11/13 04:53:15;;;;;;;;;;;;;;;11.94;66.26;99449.47;5053075;28;19913;-76
2023/11/13 04:55:41;;;;;;;;;;;;;;;11.93;65.74;99443.38;5052927;28;19917;-76
2023/11/13 04:58:07;;;;;;;;;;;;;;;11.91;66.11;99449.84;5052951;28;19917;-77
2023/11/13 05:00:32;;;;;;;;;;;;;;;11.91;66.04;99452.50;5052870;28;19923;-76
2023/11/13 05:02:57;;;;;;;;;;;;;;;11.91;64.94;99455.97;5053086;28;20318;-76
2023/11/13 05:05:23;;;;;;;;;;;;;;;11.91;65.82;99461.25;5053216;28;19995;-76
2023/11/13 05:07:48;;;;;;;;;;;;;;;11.92;65.58;99462.88;5053040;28;20003;-76
2023/11/13 05:10:13;;;;;;;;;;;;;;;11.92;65.09;99457.59;5052610;28;19920;-77
2023/11/13 05:12:39;;;;;;;;;;;;;;;11.92;65.25;99470.81;5052676;28;19913;-76
2023/11/13 05:15:04;;;;;;;;;;;;;;;11.91;64.84;99461.25;5052434;28;19904;-77
2023/11/13 05:17:30;;;;;;;;;;;;;;;11.91;65.68;99469.19;5052802;28;19916;-76
2023/11/13 05:19:55;;;;;;;;;;;;;;;11.91;65.29;99471.03;5052570;28;20010;-76
2023/11/13 05:22:21;;;;;;;;;;;;;;;11.87;65.28;99467.91;5052556;28;19912;-76
2023/11/13 05:24:46;;;;;;;;;;;;;;;11.85;64.20;99469.09;5052492;28;20054;-76
2023/11/13 05:27:13;;;;;;;;;;;;;;;11.83;64.92;99479.88;5052215;28;20398;-76
2023/11/13 05:29:38;;;;;;;;;;;;;;;11.80;65.09;99479.41;5052344;28;20382;-77
2023/11/13 05:32:03;;;;;;;;;;;;;;;11.78;64.75;99479.59;5052249;28;19919;-76
2023/11/13 05:34:29;;;;;;;;;;;;;;;11.78;65.28;99485.72;5052186;28;20052;-76
2023/11/13 05:36:54;;;;;;;;;;;;;;;11.76;65.49;99487.69;5052353;28;20393;-75
2023/11/13 05:39:21;;;;;;;;;;;;;;;11.78;64.41;99495.47;5052500;28;19917;-77
2023/11/13 05:41:46;;;;;;;;;;;;;;;11.78;65.46;99503.41;5050930;28;19948;-76
2023/11/13 05:44:11;;;;;;;;;;;;;;;11.80;64.52;99503.22;5052160;28;20353;-77
2023/11/13 05:46:38;;;;;;;;;;;;;;;11.78;65.00;99514.81;5052309;28;19967;-76
2023/11/13 05:49:04;;;;;;;;;;;;;;;11.78;64.86;99519.28;5052275;28;19938;-76
2023/11/13 05:51:30;;;;;;;;;;;;;;;11.82;65.25;99515.25;5051988;28;19917;-76
2023/11/13 05:53:55;;;;;;;;;;;;;;;11.84;64.77;99526.47;5051965;28;19920;-76
2023/11/13 05:56:20;;;;;;;;;;;;;;;11.85;64.99;99528.13;5051846;28;19921;-77
2023/11/13 05:58:45;;;;;;;;;;;;;;;11.84;64.53;99526.47;5063815;28;19912;-76
2023/11/13 06:01:11;;;;;;;;;;;;;;;11.83;64.75;99527.47;5071962;28;19924;-77
2023/11/13 06:03:36;;;;;;;;;;;;;;;11.83;64.77;99524.84;5060358;28;19921;-76
2023/11/13 06:06:06;;;;;;;;;;;;;;;11.87;65.37;99527.94;5071823;28;19948;-77
2023/11/13 06:08:31;;;;;;;;;;;;;;;11.86;64.92;99540.34;5069594;28;19920;-76
2023/11/13 06:10:56;;;;;;;;;;;;;;;11.89;65.55;99531.22;5086645;28;19924;-76
2023/11/13 06:13:22;;;;;;;;;;;;;;;11.88;64.88;99540.16;5069481;28;20009;-76
2023/11/13 06:15:47;;;;;;;;;;;;;;;11.91;64.24;99556.50;5071368;28;20369;-76
2023/11/13 06:18:12;;;;;;;;;;;;;;;11.88;64.19;99562.13;5087180;28;20425;-75
2023/11/13 06:20:37;;;;;;;;;;;;;;;11.85;63.92;99574.91;5071687;28;19905;-76
2023/11/13 06:23:03;;;;;;;;;;;;;;;11.84;63.97;99566.16;5070096;28;20300;-76
2023/11/13 06:25:28;;;;;;;;;;;;;;;11.86;63.97;99566.78;5071514;28;19917;-76
2023/11/13 06:27:56;;;;;;;;;;;;;;;11.85;64.30;99577.56;5069474;28;20442;-76
2023/11/13 06:30:22;;;;;;;;;;;;;;;11.84;64.90;99571.44;5087024;28;19923;-76
2023/11/13 06:32:48;;;;;;;;;;;;;;;11.83;64.38;99574.28;5071012;28;19912;-76
2023/11/13 06:35:14;;;;;;;;;;;;;;;11.83;64.97;99571.63;5070546;28;20334;-75
2023/11/13 06:37:40;;;;;;;;;;;;;;;11.85;64.57;99569.63;5069544;28;19919;-76
2023/11/13 06:40:06;;;;;;;;;;;;;;;11.85;64.95;99566.97;5069011;28;20298;-76
2023/11/13 06:42:31;;;;;;;;;;;;;;;11.80;66.20;99564.88;5069008;28;19919;-77
2023/11/13 06:44:56;;;;;;;;;;;;;;;11.81;64.86;99563.06;5069499;28;20382;-76
2023/11/13 06:47:22;;;;;;;;;;;;;;;11.73;65.38;99563.94;5069521;28;19969;-76
2023/11/13 06:49:47;;;;;;;;;;;;;;;11.70;66.02;99573.06;5052596;28;20461;-76
2023/11/13 06:52:12;;;;;;;;;;;;;;;11.69;65.10;99574.09;5052341;28;19917;-75
2023/11/13 06:54:38;;;;;;;;;;;;;;;11.65;65.88;99572.00;5059993;28;20301;-75
2023/11/13 06:57:04;;;;;;;;;;;;;;;11.64;66.85;99581.75;5061382;28;19921;-75
2023/11/13 06:59:29;;;;;;;;;;;;;;;11.66;65.99;99586.84;5050965;28;19916;-76
2023/11/13 07:01:55;;;;;;;;;;;;;;;11.66;66.01;99584.22;5052381;28;19912;-75
2023/11/13 07:04:21;;;;;;;;;;;;;;;11.65;66.05;99583.38;5067100;28;19920;-76
2023/11/13 07:06:46;;;;;;;;;;;;;;;11.67;67.06;99576.09;5071323;28;19920;-75
2023/11/13 07:09:12;;;;;;;;;;;;;;;11.71;65.92;99576.53;5071188;28;19913;-77
2023/11/13 07:11:38;;;;;;;;;;;;;;;11.73;66.84;99567.41;5071204;28;19919;-77
2023/11/13 07:14:03;;;;;;;;;;;;;;;11.77;66.43;99575.81;5072052;28;20432;-74
2023/11/13 07:16:29;;;;;;;;;;;;;;;11.74;67.14;99577.00;5071055;28;20096;-77
2023/11/13 07:18:54;;;;;;;;;;;;;;;11.79;66.45;99581.75;5071199;28;19999;-77
2023/11/13 07:21:19;;;;;;;;;;;;;;;11.71;67.57;99581.84;5069823;28;19923;-76
2023/11/13 07:23:44;;;;;;;;;;;;;;;11.72;67.26;99584.28;5070840;28;19955;-77
2023/11/13 07:26:10;;;;;;;;;;;;;;;11.76;67.51;99590.03;5073469;28;19923;-75
2023/11/13 07:28:36;;;;;;;;;;;;;;;11.81;67.83;99584.22;5091150;28;19941;-74
2023/11/13 07:31:01;;;;;;;;;;;;;;;11.80;67.42;99578.13;5091260;28;20324;-74
2023/11/13 07:33:26;;;;;;;;;;;;;;;11.81;68.17;99587.69;5089567;28;19916;-73
2023/11/13 07:35:52;;;;;;;;;;;;;;;11.81;67.23;99598.28;5091193;28;19920;-76
2023/11/13 07:38:18;;;;;;;;;;;;;;;11.76;68.27;99582.91;5091110;28;19966;-74
2023/11/13 07:40:43;;;;;;;;;;;;;;;11.77;67.79;99586.38;5083573;28;20313;-74
2023/11/13 07:43:08;;;;;;;;;;;;;;;11.73;69.44;99593.06;5070794;28;19966;-76
2023/11/13 07:45:34;;;;;;;;;;;;;;;11.72;68.29;99602.00;5074182;28;19912;-77
2023/11/13 07:48:00;;;;;;;;;;;;;;;11.73;67.78;99593.06;5074400;28;20312;-74
2023/11/13 07:50:27;;;;;;;;;;;;;;;11.76;68.74;99597.97;5074174;28;19917;-76
2023/11/13 07:52:53;;;;;;;;;;;;;;;11.78;68.53;99598.63;5074266;28;19912;-77
2023/11/13 07:55:18;;;;;;;;;;;;;;;11.80;68.19;99599.28;5075043;28;20450;-76
2023/11/13 07:57:43;;;;;;;;;;;;;;;11.83;67.54;99603.38;5074143;28;19919;-76
2023/11/13 08:00:13;;;;;;;;;;;;;;;11.83;68.32;99604.19;5073011;28;20343;-77
2023/11/13 08:02:42;;;;;;;;;;;;;;;11.80;67.78;99606.38;5074201;28;19912;-77
2023/11/13 08:05:10;;;;;;;;;;;;;;;11.79;68.95;99605.56;5074237;28;20445;-76
2023/11/13 08:07:37;;;;;;;;;;;;;;;11.82;67.60;99594.63;5076450;28;19924;-76
2023/11/13 08:10:03;;;;;;;;;;;;;;;11.79;68.32;99595.00;5074362;28;20059;-77
2023/11/13 08:12:31;;;;;;;;;;;;;;;11.82;68.01;99596.44;5072447;28;20007;-76
2023/11/13 08:14:58;;;;;;;;;;;;;;;11.84;68.65;99613.78;5080220;28;20015;-76
2023/11/13 08:17:24;;;;;;;;;;;;;;;11.82;68.15;99618.44;5081905;28;19973;-76
2023/11/13 08:19:50;;;;;;;;;;;;;;;11.81;68.55;99619.44;5066679;28;19920;-76
2023/11/13 08:22:16;;;;;;;;;;;;;;;11.80;69.37;99615.16;5084394;28;20282;-76
2023/11/13 08:24:42;;;;;;;;;;;;;;;11.74;68.45;99614.03;5080141;28;19973;-76
2023/11/13 08:27:07;;;;;;;;;;;;;;;11.75;68.85;99620.13;5074468;28;19920;-76
2023/11/13 08:29:32;;;;;;;;;;;;;;;11.78;69.14;99609.22;5080073;28;19966;-76
2023/11/13 08:31:58;;;;;;;;;;;;;;;11.77;68.63;99603.09;5087196;28;19916;-77
2023/11/13 08:34:23;;;;;;;;;;;;;;;11.83;69.14;99596.25;5057324;28;19916;-76
2023/11/13 08:36:48;;;;;;;;;;;;;;;11.82;68.29;99596.44;5080094;28;20008;-77
2023/11/13 08:39:17;;;;;;;;;;;;;;;11.85;69.14;99596.06;5076463;28;20253;-77
2023/11/13 08:41:42;;;;;;;;;;;;;;;11.92;68.65;99595.19;5087208;28;19920;-77
2023/11/13 08:44:07;;;;;;;;;;;;;;;12.01;68.36;99599.34;5076864;28;20011;-76
2023/11/13 08:46:35;;;;;;;;;;;;;;;12.12;68.03;99594.59;5078983;28;19917;-76
2023/11/13 08:49:00;;;;;;;;;;;;;;;12.16;67.58;99594.03;5082899;28;19969;-76
2023/11/13 08:51:27;;;;;;;;;;;;;;;12.19;67.71;99584.91;5079944;28;19912;-77
2023/11/13 08:53:53;;;;;;;;;;;;;;;12.20;68.92;99589.19;5084166;28;19956;-77
2023/11/13 08:56:18;;;;;;;;;;;;;;;12.24;68.35;99590.44;5076313;28;20025;-77
2023/11/13 08:58:43;;;;;;;;;;;;;;;12.24;68.60;99590.44;5072623;28;19931;-78
2023/11/13 09:01:09;;;;;;;;;;;;;;;12.24;68.37;99585.16;5072631;28;19912;-77
2023/11/13 09:03:34;;;;;;;;;;;;;;;12.28;67.58;99586.41;5054488;28;20409;-78
2023/11/13 09:06:04;;;;;;;;;;;;;;;12.30;66.47;99592.34;5072254;28;19920;-76
2023/11/13 09:08:30;;;;;;;;;;;;;;;12.28;68.55;99591.72;5072453;28;19912;-77
2023/11/13 09:10:55;;;;;;;;;;;;;;;12.30;68.01;99595.00;5071417;28;20306;-76
2023/11/13 09:13:23;;;;;;;;;;;;;;;12.38;68.22;99595.69;5073226;28;19960;-76
2023/11/13 09:15:49;;;;;;;;;;;;;;;12.47;68.10;99591.09;5074118;28;19920;-76
2023/11/13 09:18:15;;;;;;;;;;;;;;;12.53;67.22;99592.97;5092817;28;19961;-76
2023/11/13 09:20:42;;;;;;;;;;;;;;;12.59;67.36;99599.34;5092272;28;19912;-76
2023/11/13 09:23:09;;;;;;;;;;;;;;;12.61;67.42;99592.03;5072591;28;20290;-77
2023/11/13 09:25:34;;;;;;;;;;;;;;;12.65;67.38;99588.84;5072226;28;19946;-77
2023/11/13 09:27:59;;;;;;;;;;;;;;;12.71;66.63;99593.38;5060808;28;19920;-76
2023/11/13 09:30:26;;;;;;;;;;;;;;;12.74;66.89;99594.81;5090348;28;19917;-77
2023/11/13 09:32:51;;;;;;;;;;;;;;;12.80;66.81;99594.06;5092135;28;20007;-77
2023/11/13 09:35:18;;;;;;;;;;;;;;;12.82;66.00;99601.81;5092853;28;19943;-77
2023/11/13 09:37:45;;;;;;;;;;;;;;;12.84;67.38;99605.09;5078972;28;19924;-76
2023/11/13 09:40:14;;;;;;;;;;;;;;;12.92;66.39;99599.66;5092228;28;19916;-77
2023/11/13 09:42:40;;;;;;;;;;;;;;;12.95;66.15;99591.34;5091030;28;20308;-77
2023/11/13 09:45:06;;;;;;;;;;;;;;;12.99;66.61;99593.41;5092306;28;19912;-77
2023/11/13 09:47:33;;;;;;;;;;;;;;;13.03;66.00;99591.19;5079798;28;19917;-76
2023/11/13 09:50:02;;;;;;;;;;;;;;;13.07;65.38;99595.09;5092349;28;20006;-76
2023/11/13 09:52:29;;;;;;;;;;;;;;;13.07;66.08;99591.63;5081978;28;19965;-77
2023/11/13 09:54:56;;;;;;;;;;;;;;;13.08;65.50;99591.44;5072832;28;19921;-77
2023/11/13 09:57:22;;;;;;;;;;;;;;;13.12;65.65;99587.38;5090757;28;19969;-77
2023/11/13 09:59:51;;;;;;;;;;;;;;;13.16;65.20;99585.97;5092644;28;19981;-77
2023/11/13 10:02:18;;;;;;;;;;;;;;;13.04;65.59;99585.69;5090975;28;20304;-76
2023/11/13 10:04:44;;;;;;;;;;;;;;;13.17;65.70;99589.47;5090152;28;20393;-77
2023/11/13 10:07:10;;;;;;;;;;;;;;;13.27;65.34;99577.53;5087865;28;19974;-77
2023/11/13 10:09:36;;;;;;;;;;;;;;;13.37;65.00;99571.88;5092009;28;19919;-76
2023/11/13 10:12:02;;;;;;;;;;;;;;;13.49;65.27;99564.22;5085787;28;20014;-76
2023/11/13 10:14:29;;;;;;;;;;;;;;;13.57;64.25;99558.75;5071658;28;19913;-76
2023/11/13 10:17:02;;;;;;;;;;;;;;;13.66;64.27;99554.91;5070270;28;19916;-77
2023/11/13 10:19:28;;;;;;;;;;;;;;;13.76;64.40;99547.38;5071698;28;19920;-78
2023/11/13 10:21:55;;;;;;;;;;;;;;;13.87;64.05;99541.50;5071500;28;20333;-76
2023/11/13 10:24:24;;;;;;;;;;;;;;;14.00;63.20;99535.41;5086118;28;19920;-78
2023/11/13 10:26:50;;;;;;;;;;;;;;;14.07;62.86;99525.63;5084025;28;20344;-77
2023/11/13 10:29:20;;;;;;;;;;;;;;;13.99;63.00;99520.50;5078051;28;19912;-77
2023/11/13 10:31:45;;;;;;;;;;;;;;;13.99;63.31;99513.38;5075917;28;20397;-76
2023/11/13 10:34:11;;;;;;;;;;;;;;;14.09;63.11;99509.50;5076014;28;19995;-77
2023/11/13 10:36:40;;;;;;;;;;;;;;;14.17;62.21;99510.16;5071321;28;20017;-77
2023/11/13 10:39:11;;;;;;;;;;;;;;;14.24;62.59;99503.03;5086009;28;19949;-77
2023/11/13 10:41:44;;;;;;;;;;;;;;;14.31;62.46;99500.38;5091529;28;20503;-77
2023/11/13 10:44:22;;;;;;;;;;;;;;;14.37;61.62;99498.75;5089854;28;20262;-76
2023/11/13 10:46:49;;;;;;;;;;;;;;;14.31;61.87;99503.03;5071387;28;20389;-77
2023/11/13 10:49:15;;;;;;;;;;;;;;;14.28;62.04;99506.91;5071349;28;19920;-77
2023/11/13 10:51:43;;;;;;;;;;;;;;;14.25;61.52;99512.63;5071736;28;20369;-77
2023/11/13 10:54:08;;;;;;;;;;;;;;;14.22;62.18;99518.34;5076220;28;19916;-77
2023/11/13 10:56:34;;;;;;;;;;;;;;;14.19;62.57;99517.94;5062964;28;19927;-77
2023/11/13 10:59:00;;;;;;;;;;;;;;;14.15;61.85;99514.03;5091556;28;19912;-76
2023/11/13 11:01:28;;;;;;;;;;;;;;;14.12;62.34;99515.25;5091392;28;20304;-77
2023/11/13 11:03:57;;;;;;;;;;;;;;;14.16;62.44;99521.81;5091466;28;19956;-76
2023/11/13 11:06:22;;;;;;;;;;;;;;;14.21;61.68;99523.84;5078823;28;19917;-77
2023/11/13 11:08:49;;;;;;;;;;;;;;;14.24;61.96;99520.78;5070044;28;19912;-77
2023/11/13 11:11:18;;;;;;;;;;;;;;;14.28;61.86;99519.38;5071306;28;20420;-78
2023/11/13 11:13:52;;;;;;;;;;;;;;;14.29;61.46;99518.34;5071297;28;19965;-76
2023/11/13 11:16:23;;;;;;;;;;;;;;;14.27;61.23;99518.56;5073900;28;19920;-77
2023/11/13 11:19:09;;;;;;;;;;;;;;;14.34;61.33;99523.06;5093890;28;19983;-77
2023/11/13 11:21:37;;;;;;;;;;;;;;;14.37;61.17;99512.84;5086253;28;19920;-77
2023/11/13 11:24:28;;;;;;;;;;;;;;;14.41;60.75;99513.25;5087396;28;19919;-77
2023/11/13 11:26:54;;;;;;;;;;;;;;;14.39;61.56;99521.41;5065753;28;19917;-78
2023/11/13 11:29:33;;;;;;;;;;;;;;;14.39;61.77;99502.81;5076143;28;19948;-77
2023/11/13 11:32:19;;;;;;;;;;;;;;;14.45;61.38;99511.84;5092949;28;20515;-77
2023/11/13 11:34:49;;;;;;;;;;;;;;;14.51;61.09;99505.72;5062492;28;19948;-77
2023/11/13 11:37:16;;;;;;;;;;;;;;;14.59;61.32;99508.19;5083476;28;19924;-76
2023/11/13 11:39:51;;;;;;;;;;;;;;;14.61;60.35;99511.44;5094563;28;19968;-76
2023/11/13 11:42:23;;;;;;;;;;;;;;;14.56;59.46;99506.75;5094579;28;19916;-77
2023/11/13 11:44:56;;;;;;;;;;;;;;;14.57;59.63;99516.34;5094466;28;19912;-77
2023/11/13 11:47:27;;;;;;;;;;;;;;;14.54;59.39;99505.31;5082438;28;19917;-77
2023/11/13 11:49:54;;;;;;;;;;;;;;;14.53;60.00;99509.00;5076822;28;19917;-77
2023/11/13 11:52:40;;;;;;;;;;;;;;;14.51;59.87;99503.88;5090909;28;19912;-78
2023/11/13 11:55:06;;;;;;;;;;;;;;;14.50;59.62;99509.41;5088920;28;19944;-76
2023/11/13 11:57:31;;;;;;;;;;;;;;;14.49;59.47;99505.94;5073883;28;19970;-77
2023/11/13 12:00:00;;;;;;;;;;;;;;;14.49;59.25;99505.94;5074102;28;19912;-75
2023/11/13 12:02:28;;;;;;;;;;;;;;;14.46;58.40;99503.69;5080216;28;19999;-75
2023/11/13 12:04:53;;;;;;;;;;;;;;;14.41;58.55;99497.31;5094300;28;19965;-76
2023/11/13 12:07:18;;;;;;;;;;;;;;;14.43;58.61;99490.00;5086952;28;20367;-75
2023/11/13 12:09:44;;;;;;;;;;;;;;;14.43;57.72;99490.81;5073804;28;20355;-76
2023/11/13 12:12:10;;;;;;;;;;;;;;;14.44;58.09;99489.78;5075043;28;19937;-76
2023/11/13 12:14:37;;;;;;;;;;;;;;;14.47;58.60;99483.25;5074574;28;19912;-77
2023/11/13 12:17:03;;;;;;;;;;;;;;;14.48;58.79;99485.69;5080897;28;19927;-76
2023/11/13 12:19:28;;;;;;;;;;;;;;;14.51;58.67;99484.47;5092292;28;19916;-77
2023/11/13 12:21:56;;;;;;;;;;;;;;;14.52;58.46;99483.44;5094109;28;19912;-75
2023/11/13 12:24:21;;;;;;;;;;;;;;;14.57;58.97;99481.00;5093851;28;20298;-76
2023/11/13 12:26:49;;;;;;;;;;;;;;;14.57;58.77;99492.44;5093713;28;19918;-78
2023/11/13 12:29:18;;;;;;;;;;;;;;;14.56;57.87;99479.34;5085835;28;19939;-76
2023/11/13 12:31:45;;;;;;;;;;;;;;;14.57;57.83;99476.50;5060263;28;19977;-75
2023/11/13 12:34:14;;;;;;;;;;;;;;;14.60;57.69;99472.59;5093655;28;19916;-76
2023/11/13 12:36:39;;;;;;;;;;;;;;;14.61;57.69;99468.94;5087689;28;19927;-77
2023/11/13 12:39:07;;;;;;;;;;;;;;;14.61;57.90;99468.94;5080898;28;19916;-77
2023/11/13 12:41:32;;;;;;;;;;;;;;;14.62;57.38;99479.34;5076043;28;20367;-76
2023/11/13 12:43:57;;;;;;;;;;;;;;;14.63;57.77;99467.69;5062069;28;19920;-77